Time;durP1;ratioP1;P1;durP2;ratioP2;P2;SDS_P1;SDS_P2;PMS_P1;PMS_P2;Temp;Humidity;BMP_temperature;BMP_pressure;BME280_temperature;BME280_humidity;BME280_pressure;Samples;Min_cycle;Max_cycle;Signal;HPM_P1;HPM_P2
2022/09/26 00:00:53;;;;;;;8.93;2.63;;;11.60;99.90;;;;;;5064125;28;20131;-44
2022/09/26 00:03:19;;;;;;;7.28;2.65;;;11.60;99.90;;;;;;5067911;28;20053;-46
2022/09/26 00:05:46;;;;;;;9.77;3.45;;;11.60;99.90;;;;;;5071929;28;20044;-45
2022/09/26 00:08:13;;;;;;;5.57;2.65;;;11.60;99.90;;;;;;5068531;28;20047;-46
2022/09/26 00:10:40;;;;;;;7.65;2.50;;;11.60;99.90;;;;;;5068882;28;20558;-43
2022/09/26 00:13:07;;;;;;;6.63;2.70;;;11.60;99.90;;;;;;5069342;28;20508;-42
2022/09/26 00:15:34;;;;;;;8.05;2.50;;;11.60;99.90;;;;;;5070208;28;20480;-48
2022/09/26 00:18:02;;;;;;;7.65;2.58;;;11.60;99.90;;;;;;5069436;28;20056;-48
2022/09/26 00:20:29;;;;;;;5.90;2.58;;;11.60;99.90;;;;;;5062873;28;20057;-46
2022/09/26 00:22:55;;;;;;;7.53;2.70;;;11.60;99.90;;;;;;5066019;28;20102;-46
2022/09/26 00:25:22;;;;;;;6.63;2.67;;;11.60;99.90;;;;;;5070972;28;20060;-46
2022/09/26 00:27:49;;;;;;;8.38;2.30;;;11.60;99.90;;;;;;5068761;28;20048;-46
2022/09/26 00:30:16;;;;;;;8.05;2.00;;;11.60;99.90;;;;;;5069507;28;20080;-44
2022/09/26 00:32:43;;;;;;;5.80;2.25;;;11.60;99.90;;;;;;5066781;28;20044;-45
2022/09/26 00:35:11;;;;;;;7.80;2.17;;;11.60;99.90;;;;;;5068093;28;20052;-48
2022/09/26 00:37:38;;;;;;;5.47;2.08;;;11.60;99.90;;;;;;5066305;28;20121;-45
2022/09/26 00:40:05;;;;;;;7.05;2.30;;;11.60;99.90;;;;;;5072750;28;20107;-43
2022/09/26 00:42:32;;;;;;;5.68;2.05;;;11.60;99.90;;;;;;5068957;28;20565;-43
2022/09/26 00:44:59;;;;;;;9.23;2.50;;;11.60;99.90;;;;;;5071277;28;20110;-44
2022/09/26 00:47:35;;;;;;;7.13;2.10;;;11.60;99.90;;;;;;5070231;28;20123;-44
2022/09/26 00:50:04;;;;;;;10.15;2.92;;;11.60;99.90;;;;;;5070151;28;20135;-45
2022/09/26 00:52:34;;;;;;;7.35;2.13;;;11.60;99.90;;;;;;5071112;28;20056;-45
2022/09/26 00:55:02;;;;;;;5.43;1.70;;;11.60;99.90;;;;;;5069170;28;20102;-48
2022/09/26 00:57:31;;;;;;;5.90;1.92;;;11.60;99.90;;;;;;5067860;28;20056;-45
2022/09/26 00:59:59;;;;;;;9.25;2.20;;;11.60;99.90;;;;;;5074034;28;20098;-45
2022/09/26 01:02:26;;;;;;;4.85;2.05;;;11.60;99.90;;;;;;5069821;28;20080;-46
2022/09/26 01:04:53;;;;;;;4.35;1.88;;;11.60;99.90;;;;;;5069486;28;20135;-45
2022/09/26 01:07:22;;;;;;;6.07;1.83;;;11.60;99.90;;;;;;5072524;28;20385;-42
2022/09/26 01:09:50;;;;;;;4.55;2.00;;;11.60;99.90;;;;;;5075466;28;20132;-45
2022/09/26 01:12:17;;;;;;;4.57;1.55;;;11.60;99.90;;;;;;5072405;28;20065;-41
2022/09/26 01:14:43;;;;;;;5.10;1.77;;;11.60;99.90;;;;;;5072819;28;20076;-45
2022/09/26 01:17:10;;;;;;;7.03;1.90;;;11.60;99.90;;;;;;5073227;28;20041;-42
2022/09/26 01:19:41;;;;;;;7.35;2.20;;;11.50;99.90;;;;;;5074487;28;20136;-45
2022/09/26 01:22:19;;;;;;;10.25;2.08;;;11.50;99.90;;;;;;5074187;28;20114;-41
2022/09/26 01:24:52;;;;;;;10.27;1.90;;;11.50;99.90;;;;;;5071183;28;20444;-40
2022/09/26 01:27:46;;;;;;;4.53;1.33;;;11.50;99.90;;;;;;5068468;28;20053;-45
2022/09/26 01:30:15;;;;;;;5.50;2.00;;;11.50;99.90;;;;;;5074617;28;20124;-42
2022/09/26 01:32:58;;;;;;;8.35;1.85;;;11.50;99.90;;;;;;5070925;28;20117;-45
2022/09/26 01:35:53;;;;;;;6.85;2.33;;;11.50;99.90;;;;;;5071460;28;20084;-43
2022/09/26 01:38:23;;;;;;;8.35;1.80;;;11.50;99.90;;;;;;5062197;28;20166;-37
2022/09/26 01:41:00;;;;;;;8.45;1.98;;;11.50;99.90;;;;;;5073294;28;20045;-46
2022/09/26 01:43:29;;;;;;;10.85;2.33;;;11.50;99.90;;;;;;5072051;28;20479;-45
2022/09/26 01:46:00;;;;;;;8.10;2.25;;;11.50;99.90;;;;;;5072933;28;20110;-45
2022/09/26 01:48:31;;;;;;;11.00;2.30;;;11.50;99.90;;;;;;5069786;28;20079;-42
2022/09/26 01:50:59;;;;;;;8.07;2.47;;;11.50;99.90;;;;;;5068460;28;20565;-44
2022/09/26 01:53:29;;;;;;;10.80;2.58;;;11.50;99.90;;;;;;5073171;28;20048;-46
2022/09/26 01:55:57;;;;;;;12.93;3.17;;;11.50;99.90;;;;;;5072888;28;20500;-42
2022/09/26 01:58:25;;;;;;;11.43;3.00;;;11.50;99.90;;;;;;5067113;28;20075;-43
2022/09/26 02:00:52;;;;;;;14.82;3.10;;;11.50;99.90;;;;;;5071358;28;20080;-43
2022/09/26 02:03:22;;;;;;;6.57;2.58;;;11.50;99.90;;;;;;5074005;28;20045;-44
2022/09/26 02:05:50;;;;;;;9.85;2.90;;;11.50;99.90;;;;;;5072778;28;20101;-46
2022/09/26 02:08:18;;;;;;;10.45;2.80;;;11.50;99.90;;;;;;5071530;28;20049;-46
2022/09/26 02:10:46;;;;;;;7.40;2.70;;;11.50;99.90;;;;;;5071852;28;20068;-47
2022/09/26 02:13:14;;;;;;;9.13;3.15;;;11.50;99.90;;;;;;5072530;28;20562;-42
2022/09/26 02:15:41;;;;;;;9.75;3.08;;;11.50;99.90;;;;;;5072432;28;20075;-45
2022/09/26 02:18:12;;;;;;;9.98;3.13;;;11.50;99.90;;;;;;5069520;28;20056;-44
2022/09/26 02:20:43;;;;;;;10.95;3.28;;;11.50;99.90;;;;;;5073414;28;20133;-45
2022/09/26 02:23:10;;;;;;;9.80;3.38;;;11.50;99.90;;;;;;5072090;28;20106;-45
2022/09/26 02:25:37;;;;;;;12.38;3.45;;;11.50;99.90;;;;;;5073820;28;20056;-44
2022/09/26 02:28:04;;;;;;;6.00;3.20;;;11.50;99.90;;;;;;5071159;28;20056;-45
2022/09/26 02:30:31;;;;;;;10.77;3.13;;;11.50;99.90;;;;;;5073820;28;20128;-45
2022/09/26 02:32:57;;;;;;;7.75;3.00;;;11.50;99.90;;;;;;5068622;28;20502;-44
2022/09/26 02:38:10;;;;;;;10.80;3.50;;;11.50;99.90;;;;;;5070153;28;20049;-45
2022/09/26 02:40:41;;;;;;;8.82;3.35;;;11.50;99.90;;;;;;5072603;28;20056;-49
2022/09/26 02:43:49;;;;;;;11.77;3.85;;;11.50;99.90;;;;;;5070960;28;20063;-48
2022/09/26 02:46:50;;;;;;;7.97;3.40;;;11.50;99.90;;;;;;5037131;28;20139;-46
2022/09/26 02:49:55;;;;;;;8.82;3.17;;;11.50;99.90;;;;;;5059273;28;20051;-43
2022/09/26 02:52:32;;;;;;;9.57;4.07;;;11.50;99.90;;;;;;5067890;28;20056;-45
2022/09/26 02:55:05;;;;;;;7.85;3.92;;;11.50;99.90;;;;;;5070826;28;20508;-43
2022/09/26 02:57:35;;;;;;;6.22;4.18;;;11.50;99.90;;;;;;5072295;28;20119;-46
2022/09/26 03:00:03;;;;;;;12.63;5.05;;;11.50;99.90;;;;;;5071068;28;20076;-47
2022/09/26 03:02:33;;;;;;;9.57;4.43;;;11.50;99.90;;;;;;5068831;28;20489;-48
2022/09/26 03:05:01;;;;;;;12.20;5.00;;;11.50;99.90;;;;;;5072107;28;20527;-51
2022/09/26 03:07:30;;;;;;;7.68;4.35;;;11.50;99.90;;;;;;5070442;28;20098;-51
2022/09/26 03:09:56;;;;;;;10.55;5.10;;;11.40;99.90;;;;;;5072982;28;20055;-53
2022/09/26 03:12:25;;;;;;;11.15;4.32;;;11.40;99.90;;;;;;5070193;28;20098;-51
2022/09/26 03:14:51;;;;;;;11.23;4.82;;;11.40;99.90;;;;;;5074368;28;20052;-59
2022/09/26 03:17:18;;;;;;;14.57;5.57;;;11.40;99.90;;;;;;5069973;28;20079;-60
2022/09/26 03:19:46;;;;;;;11.35;5.30;;;11.40;99.90;;;;;;5071215;28;20127;-60
2022/09/26 03:22:14;;;;;;;9.82;4.80;;;11.40;99.90;;;;;;5066919;28;21307;-62
2022/09/26 03:24:41;;;;;;;9.68;5.00;;;11.40;99.90;;;;;;5071978;28;20048;-62
2022/09/26 03:27:08;;;;;;;7.43;4.57;;;11.40;99.90;;;;;;5070280;28;20049;-61
2022/09/26 03:29:36;;;;;;;11.05;5.32;;;11.40;99.90;;;;;;5071442;28;20094;-59
2022/09/26 03:32:03;;;;;;;8.52;5.07;;;11.40;99.90;;;;;;5068081;28;20057;-57
2022/09/26 03:34:30;;;;;;;12.10;5.30;;;11.40;99.90;;;;;;5066215;28;20053;-57
2022/09/26 03:36:57;;;;;;;10.40;5.15;;;11.40;99.90;;;;;;5064872;28;20144;-55
2022/09/26 03:39:23;;;;;;;11.73;5.55;;;11.30;99.90;;;;;;5065812;28;20041;-55
2022/09/26 03:41:50;;;;;;;14.43;5.85;;;11.30;99.90;;;;;;5065027;28;20045;-52
2022/09/26 03:44:17;;;;;;;12.35;4.97;;;11.30;99.90;;;;;;5066103;28;20394;-50
2022/09/26 03:46:46;;;;;;;11.18;5.18;;;11.30;99.90;;;;;;5068324;28;20052;-52
2022/09/26 03:49:12;;;;;;;11.95;5.28;;;11.30;99.90;;;;;;5059492;28;20174;-46
2022/09/26 03:51:39;;;;;;;11.77;4.97;;;11.30;99.90;;;;;;5060719;28;20143;-49
2022/09/26 03:54:06;;;;;;;12.38;5.65;;;11.30;99.90;;;;;;5063895;28;20068;-52
2022/09/26 03:56:33;;;;;;;14.07;5.38;;;11.30;99.90;;;;;;5065448;28;20052;-52
2022/09/26 03:59:00;;;;;;;13.25;5.68;;;11.30;99.90;;;;;;5065283;28;20830;-49
2022/09/26 04:01:27;;;;;;;12.82;5.57;;;11.30;99.90;;;;;;5068367;28;20052;-56
2022/09/26 04:03:56;;;;;;;9.15;5.82;;;11.30;99.90;;;;;;5070293;28;20059;-57
2022/09/26 04:06:23;;;;;;;13.50;5.90;;;11.30;99.90;;;;;;5071854;28;20446;-57
2022/09/26 04:08:50;;;;;;;12.85;5.82;;;11.30;99.90;;;;;;5065823;28;20096;-54
2022/09/26 04:11:18;;;;;;;9.20;6.30;;;11.20;99.90;;;;;;5069417;28;20500;-58
2022/09/26 04:13:45;;;;;;;12.35;6.68;;;11.20;99.90;;;;;;5066084;28;20079;-57
2022/09/26 04:16:12;;;;;;;11.63;6.55;;;11.30;99.90;;;;;;5069212;28;20557;-56
2022/09/26 04:18:39;;;;;;;14.30;7.72;;;11.20;99.90;;;;;;5071410;28;20056;-58
2022/09/26 04:21:09;;;;;;;9.25;6.03;;;11.20;99.90;;;;;;5069123;28;20102;-57
2022/09/26 04:23:37;;;;;;;17.95;7.35;;;11.20;99.90;;;;;;5070190;28;20076;-43
2022/09/26 04:26:04;;;;;;;10.35;6.82;;;11.20;99.90;;;;;;5068594;28;20052;-57
2022/09/26 04:28:31;;;;;;;12.95;7.30;;;11.20;99.90;;;;;;5066812;28;20056;-57
2022/09/26 04:30:58;;;;;;;13.20;7.30;;;11.20;99.90;;;;;;5068619;28;20087;-57
2022/09/26 04:33:25;;;;;;;15.80;7.78;;;11.20;99.90;;;;;;5070865;28;20048;-55
2022/09/26 04:35:52;;;;;;;13.73;7.43;;;11.20;99.90;;;;;;5068953;28;20052;-53
2022/09/26 04:38:20;;;;;;;11.13;7.32;;;11.10;99.90;;;;;;5070988;28;20142;-52
2022/09/26 04:40:47;;;;;;;13.00;6.80;;;11.20;99.90;;;;;;5069434;28;20451;-45
2022/09/26 04:43:14;;;;;;;16.15;7.88;;;11.20;99.90;;;;;;5066417;28;20098;-53
2022/09/26 04:45:41;;;;;;;9.63;6.60;;;11.10;99.90;;;;;;5067244;28;20382;-50
2022/09/26 04:48:09;;;;;;;10.95;7.05;;;11.10;99.90;;;;;;5071673;28;20048;-51
2022/09/26 04:50:35;;;;;;;11.55;7.60;;;11.10;99.90;;;;;;5071234;28;20040;-47
2022/09/26 04:53:05;;;;;;;15.02;7.43;;;11.10;99.90;;;;;;5071367;28;20053;-48
2022/09/26 04:55:33;;;;;;;14.93;8.23;;;11.10;99.90;;;;;;5065426;28;20075;-56
2022/09/26 04:58:01;;;;;;;14.13;8.50;;;11.10;99.90;;;;;;5066567;28;20083;-52
2022/09/26 05:00:27;;;;;;;17.02;8.13;;;11.10;99.90;;;;;;5067772;28;20124;-53
2022/09/26 05:02:55;;;;;;;17.25;8.32;;;11.10;99.90;;;;;;5069137;28;20094;-57
2022/09/26 05:05:21;;;;;;;13.20;7.82;;;11.10;99.90;;;;;;5069595;28;20084;-58
2022/09/26 05:07:48;;;;;;;14.57;8.23;;;11.10;99.90;;;;;;5066528;28;20060;-58
2022/09/26 05:10:15;;;;;;;12.60;8.10;;;11.10;99.90;;;;;;5066181;28;20190;-58
2022/09/26 05:12:43;;;;;;;15.10;8.38;;;11.10;99.90;;;;;;5064866;28;20080;-53
2022/09/26 05:15:10;;;;;;;16.75;8.93;;;11.10;99.90;;;;;;5069433;28;20055;-59
2022/09/26 05:17:37;;;;;;;10.55;7.85;;;11.10;99.90;;;;;;5066491;28;20060;-58
2022/09/26 05:20:07;;;;;;;12.82;8.63;;;11.10;99.90;;;;;;5070014;28;20103;-59
2022/09/26 05:22:34;;;;;;;11.88;7.80;;;11.10;99.90;;;;;;5069915;28;20076;-59
2022/09/26 05:27:46;;;;;;;11.50;8.30;;;11.10;99.90;;;;;;5069125;28;20053;-57
2022/09/26 05:30:13;;;;;;;13.25;8.02;;;11.10;99.90;;;;;;5070268;28;20086;-57
2022/09/26 05:32:43;;;;;;;13.68;8.75;;;11.10;99.90;;;;;;5063560;28;20143;-51
2022/09/26 05:35:10;;;;;;;14.25;8.60;;;11.00;99.90;;;;;;5062983;28;20053;-57
2022/09/26 05:37:37;;;;;;;17.77;9.13;;;11.00;99.90;;;;;;5067752;28;20484;-57
2022/09/26 05:42:50;;;;;;;11.48;8.55;;;11.00;99.90;;;;;;5069859;28;20053;-58
2022/09/26 05:45:18;;;;;;;13.27;8.40;;;11.00;99.90;;;;;;5071235;28;20048;-59
2022/09/26 05:47:47;;;;;;;12.45;8.63;;;11.00;99.90;;;;;;5073929;28;20053;-59
2022/09/26 05:50:14;;;;;;;11.52;8.02;;;11.00;99.90;;;;;;5074865;28;20079;-60
2022/09/26 05:52:41;;;;;;;18.70;8.40;;;10.90;99.90;;;;;;5075419;28;20091;-56
2022/09/26 05:55:10;;;;;;;11.30;7.75;;;11.00;99.90;;;;;;5075101;28;20056;-58
2022/09/26 05:57:37;;;;;;;12.90;7.75;;;11.00;99.90;;;;;;5075242;28;20053;-56
2022/09/26 06:00:07;;;;;;;14.23;8.20;;;11.00;99.90;;;;;;5070479;28;20143;-54
2022/09/26 06:02:34;;;;;;;16.60;7.80;;;11.00;99.90;;;;;;5073660;28;20041;-56
2022/09/26 06:05:01;;;;;;;14.77;8.32;;;10.90;99.90;;;;;;5072213;28;20087;-56
2022/09/26 06:07:27;;;;;;;15.70;7.82;;;10.90;99.90;;;;;;5063683;28;20459;-54
2022/09/26 06:09:54;;;;;;;16.50;7.53;;;10.90;99.90;;;;;;5072156;28;20094;-51
2022/09/26 06:12:21;;;;;;;14.00;7.75;;;10.90;99.90;;;;;;5073536;28;20087;-48
2022/09/26 06:14:48;;;;;;;14.63;7.50;;;10.90;99.90;;;;;;5073067;28;20566;-54
2022/09/26 06:17:16;;;;;;;16.52;7.60;;;10.90;99.90;;;;;;5074092;28;20048;-45
2022/09/26 06:19:43;;;;;;;12.02;7.55;;;11.00;99.90;;;;;;5069439;28;20098;-51
2022/09/26 06:22:10;;;;;;;13.35;6.68;;;10.90;99.90;;;;;;5069204;28;20052;-53
2022/09/26 06:24:36;;;;;;;11.95;6.97;;;10.90;99.90;;;;;;5069919;28;20045;-54
2022/09/26 06:27:03;;;;;;;13.25;6.90;;;10.90;99.90;;;;;;5069166;28;20060;-52
2022/09/26 06:29:31;;;;;;;11.88;6.85;;;10.90;99.90;;;;;;5072984;28;20443;-50
2022/09/26 06:31:58;;;;;;;10.40;6.72;;;10.90;99.90;;;;;;5072834;28;20053;-50
2022/09/26 06:34:26;;;;;;;11.32;6.50;;;10.90;99.90;;;;;;5071705;28;20105;-54
2022/09/26 06:36:53;;;;;;;12.57;6.40;;;10.90;99.90;;;;;;5072568;28;20056;-52
2022/09/26 06:39:19;;;;;;;12.88;6.28;;;10.90;99.90;;;;;;5071759;28;20048;-54
2022/09/26 06:41:46;;;;;;;12.73;6.70;;;10.90;99.90;;;;;;5073877;28;20102;-54
2022/09/26 06:44:13;;;;;;;13.80;6.35;;;10.90;99.90;;;;;;5071163;28;20052;-51
2022/09/26 06:46:40;;;;;;;10.73;6.65;;;10.90;99.90;;;;;;5069320;28;20143;-51
2022/09/26 06:49:07;;;;;;;14.90;6.20;;;10.90;99.90;;;;;;5072615;28;20060;-53
2022/09/26 06:51:36;;;;;;;13.90;6.18;;;10.90;99.90;;;;;;5069447;28;20098;-54
2022/09/26 06:54:03;;;;;;;10.88;6.43;;;10.90;99.90;;;;;;5072587;28;20056;-50
2022/09/26 06:56:30;;;;;;;10.23;5.35;;;10.90;99.90;;;;;;5073515;28;20052;-55
2022/09/26 06:58:57;;;;;;;10.15;5.55;;;10.80;99.90;;;;;;5072746;28;20111;-54
2022/09/26 07:01:24;;;;;;;10.15;5.60;;;10.80;99.90;;;;;;5069546;28;20089;-53
2022/09/26 07:03:51;;;;;;;12.27;5.75;;;10.80;99.90;;;;;;5069535;28;20102;-49
2022/09/26 07:06:18;;;;;;;9.07;5.32;;;10.80;99.90;;;;;;5073807;28;20091;-58
2022/09/26 07:08:46;;;;;;;10.93;4.82;;;10.80;99.90;;;;;;5071022;28;20097;-60
2022/09/26 07:11:13;;;;;;;9.77;4.85;;;10.80;99.90;;;;;;5071497;28;20049;-60
2022/09/26 07:13:40;;;;;;;9.32;5.65;;;10.80;99.90;;;;;;5072229;28;20049;-55
2022/09/26 07:16:07;;;;;;;10.43;5.13;;;10.80;99.90;;;;;;5069021;28;20094;-60
2022/09/26 07:18:35;;;;;;;9.98;5.20;;;10.80;99.90;;;;;;5072405;28;20443;-57
2022/09/26 07:21:04;;;;;;;10.00;5.15;;;10.80;99.90;;;;;;5071860;28;20122;-60
2022/09/26 07:23:31;;;;;;;9.73;4.78;;;10.80;99.90;;;;;;5070050;28;20111;-54
2022/09/26 07:25:59;;;;;;;9.90;5.15;;;10.80;99.90;;;;;;5069974;28;20110;-55
2022/09/26 07:28:26;;;;;;;12.27;4.97;;;10.80;99.90;;;;;;5066557;28;20056;-57
2022/09/26 07:30:55;;;;;;;9.23;4.63;;;10.80;99.90;;;;;;5070948;28;20091;-57
2022/09/26 07:33:22;;;;;;;12.63;4.78;;;10.80;99.90;;;;;;5071352;28;20110;-55
2022/09/26 07:35:49;;;;;;;8.98;4.97;;;10.80;99.90;;;;;;5070315;28;20704;-59
2022/09/26 07:38:16;;;;;;;9.07;4.60;;;10.80;99.90;;;;;;5070578;28;20052;-54
2022/09/26 07:40:43;;;;;;;11.13;4.88;;;10.80;99.90;;;;;;5071760;28;20458;-58
2022/09/26 07:43:11;;;;;;;11.77;4.38;;;10.80;99.90;;;;;;5072136;28;20427;-54
2022/09/26 07:51:07;;;;;;;8.10;4.00;;;10.80;99.90;;;;;;5070515;28;20048;-56
2022/09/26 07:53:40;;;;;;;12.15;4.82;;;10.80;99.90;;;;;;5072233;28;20492;-54
2022/09/26 07:56:09;;;;;;;9.70;4.05;;;10.80;99.90;;;;;;5072360;28;20090;-52
2022/09/26 07:58:38;;;;;;;9.10;4.80;;;10.80;99.90;;;;;;5071345;28;20056;-50
2022/09/26 08:01:06;;;;;;;10.07;4.53;;;10.80;99.90;;;;;;5071317;28;20142;-52
2022/09/26 08:03:33;;;;;;;11.85;4.97;;;10.80;99.90;;;;;;5069265;28;20474;-52
2022/09/26 08:06:00;;;;;;;10.10;4.40;;;10.80;99.90;;;;;;5070936;28;20064;-49
2022/09/26 08:08:28;;;;;;;7.32;4.60;;;10.90;99.90;;;;;;5071340;28;20053;-48
2022/09/26 08:10:56;;;;;;;8.85;4.13;;;10.90;99.90;;;;;;5071888;28;20041;-48
2022/09/26 08:13:23;;;;;;;5.82;4.03;;;10.90;99.90;;;;;;5070398;28;20102;-51
2022/09/26 08:15:52;;;;;;;8.32;4.32;;;11.00;99.90;;;;;;5072105;28;20106;-51
2022/09/26 08:18:19;;;;;;;6.75;3.90;;;11.00;99.90;;;;;;5071030;28;20056;-51
2022/09/26 08:20:47;;;;;;;13.60;4.28;;;11.00;99.90;;;;;;5070674;28;20549;-49
2022/09/26 08:23:14;;;;;;;5.90;4.00;;;11.10;99.90;;;;;;5070762;28;20051;-49
2022/09/26 08:25:41;;;;;;;9.18;4.85;;;11.10;99.90;;;;;;5071473;28;20127;-46
2022/09/26 08:28:10;;;;;;;8.52;4.07;;;11.20;99.90;;;;;;5070795;28;20241;-51
2022/09/26 08:30:37;;;;;;;13.70;4.50;;;11.20;99.90;;;;;;5069616;28;20051;-50
2022/09/26 08:33:05;;;;;;;6.30;4.55;;;11.20;99.90;;;;;;5072034;28;20052;-46
2022/09/26 08:35:37;;;;;;;8.40;3.72;;;11.30;99.90;;;;;;5069529;28;20064;-47
2022/09/26 08:38:04;;;;;;;;;;;11.30;99.90;;;;;;5068966;28;20058;-50
2022/09/26 08:40:34;;;;;;;9.68;4.22;;;11.30;99.90;;;;;;5069496;28;20364;-50
2022/09/26 08:43:05;;;;;;;17.00;4.78;;;11.30;99.90;;;;;;5071837;28;20056;-46
2022/09/26 08:48:58;;;;;;;8.85;3.70;;;11.40;99.90;;;;;;5070768;28;20052;-49
2022/09/26 08:51:28;;;;;;;7.80;3.38;;;11.50;99.90;;;;;;5061754;28;20045;-47
2022/09/26 08:53:57;;;;;;;9.63;3.72;;;11.50;99.90;;;;;;5071160;28;20473;-47
2022/09/26 08:56:29;;;;;;;6.18;3.65;;;11.50;99.90;;;;;;5071123;28;20118;-48
2022/09/26 08:58:55;;;;;;;9.32;3.53;;;11.50;99.90;;;;;;5071807;28;20049;-47
2022/09/26 09:01:25;;;;;;;10.75;3.97;;;11.50;99.90;;;;;;5068374;28;20435;-45
2022/09/26 09:03:55;;;;;;;6.88;3.30;;;11.60;99.90;;;;;;5069742;28;20053;-49
2022/09/26 09:06:22;;;;;;;5.88;3.25;;;11.60;99.90;;;;;;5066684;28;20090;-37
2022/09/26 09:08:50;;;;;;;9.88;3.90;;;11.60;99.90;;;;;;5065244;28;20102;-44
2022/09/26 09:11:21;;;;;;;7.25;3.33;;;11.70;99.90;;;;;;5071103;28;20483;-47
2022/09/26 09:13:55;;;;;;;8.93;3.75;;;11.70;99.90;;;;;;5067457;28;20041;-49
2022/09/26 09:16:29;;;;;;;8.45;4.15;;;11.80;99.90;;;;;;5071704;28;20053;-45
2022/09/26 09:19:00;;;;;;;8.70;3.70;;;11.80;99.90;;;;;;5070422;28;20094;-50
2022/09/26 09:21:33;;;;;;;8.32;3.65;;;11.90;99.90;;;;;;5072239;28;20131;-49
2022/09/26 09:24:09;;;;;;;8.10;3.58;;;11.90;99.90;;;;;;5057949;28;20387;-49
2022/09/26 09:26:37;;;;;;;9.95;3.42;;;11.90;99.90;;;;;;5054826;28;20661;-45
2022/09/26 09:29:24;;;;;;;9.70;3.60;;;11.90;99.90;;;;;;5074101;28;20114;-44
2022/09/26 09:31:50;;;;;;;10.65;3.40;;;12.00;99.90;;;;;;5086876;28;20099;-46
2022/09/26 09:34:25;;;;;;;15.10;3.72;;;12.00;99.90;;;;;;5055395;28;20060;-48
2022/09/26 09:36:53;;;;;;;9.93;3.72;;;12.00;99.90;;;;;;5072104;28;20775;-49
2022/09/26 09:39:24;;;;;;;7.68;3.75;;;12.00;99.90;;;;;;5073045;28;20048;-47
2022/09/26 09:41:52;;;;;;;9.93;4.00;;;12.00;99.90;;;;;;5075246;28;20553;-51
2022/09/26 09:44:28;;;;;;;9.98;3.92;;;12.00;99.90;;;;;;5072674;28;20056;-46
2022/09/26 09:46:54;;;;;;;7.90;4.00;;;12.00;99.90;;;;;;5064406;28;20106;-49
2022/09/26 09:49:24;;;;;;;9.73;4.95;;;12.00;99.90;;;;;;5068188;28;20491;-49
2022/09/26 09:52:01;;;;;;;9.60;4.00;;;12.00;99.90;;;;;;5071936;28;20047;-50
2022/09/26 09:54:38;;;;;;;9.98;4.65;;;12.00;99.90;;;;;;5074999;28;20137;-47
2022/09/26 09:57:19;;;;;;;10.18;4.53;;;12.10;99.90;;;;;;5071512;28;20102;-47
2022/09/26 09:59:54;;;;;;;8.50;3.87;;;12.10;99.90;;;;;;5073350;28;20087;-49
2022/09/26 10:02:30;;;;;;;12.52;4.38;;;12.10;99.90;;;;;;5071814;28;20306;-47
2022/09/26 10:05:03;;;;;;;10.13;4.85;;;12.10;99.90;;;;;;5074693;28;20048;-48
2022/09/26 10:07:29;;;;;;;13.27;4.50;;;12.10;99.90;;;;;;5072000;28;20044;-46
2022/09/26 10:09:56;;;;;;;10.10;5.05;;;12.10;99.90;;;;;;5074152;28;20056;-49
2022/09/26 10:12:27;;;;;;;12.35;4.53;;;12.20;99.90;;;;;;5070270;28;20048;-49
2022/09/26 10:14:56;;;;;;;11.38;4.38;;;12.30;99.90;;;;;;5072164;28;20159;-48
2022/09/26 10:17:23;;;;;;;10.80;4.40;;;12.30;99.90;;;;;;5070412;28;20052;-47
2022/09/26 10:19:50;;;;;;;8.90;4.60;;;12.30;99.90;;;;;;5071388;28;20084;-49
2022/09/26 10:22:26;;;;;;;13.13;4.75;;;12.30;99.90;;;;;;5074053;28;20044;-49
2022/09/26 10:24:54;;;;;;;12.07;4.35;;;12.30;99.90;;;;;;5072098;28;20048;-46
2022/09/26 10:27:25;;;;;;;8.70;4.03;;;12.40;99.90;;;;;;5073013;28;20103;-49
2022/09/26 10:29:56;;;;;;;14.87;4.20;;;12.30;99.90;;;;;;5071238;28;20048;-45
2022/09/26 10:32:23;;;;;;;9.73;4.07;;;12.30;99.90;;;;;;5070271;28;20366;-46
2022/09/26 10:35:04;;;;;;;7.68;3.83;;;12.30;99.90;;;;;;5070302;28;20402;-47
2022/09/26 10:37:32;;;;;;;7.82;4.18;;;12.30;99.90;;;;;;5068532;28;20519;-47
2022/09/26 10:42:45;;;;;;;8.23;3.67;;;12.30;99.90;;;;;;5052670;28;20049;-47
2022/09/26 10:45:15;;;;;;;9.75;4.40;;;12.30;99.90;;;;;;5054480;28;20385;-47
2022/09/26 10:47:44;;;;;;;13.98;4.30;;;12.20;99.90;;;;;;5068433;28;20129;-49
2022/09/26 10:50:13;;;;;;;11.07;4.25;;;12.20;99.90;;;;;;5071566;28;20049;-47
2022/09/26 10:52:44;;;;;;;10.13;4.78;;;12.20;99.90;;;;;;5073041;28;20068;-45
2022/09/26 10:55:13;;;;;;;10.85;4.25;;;12.30;99.90;;;;;;5070320;28;20044;-48
2022/09/26 10:57:44;;;;;;;9.60;4.40;;;12.30;99.90;;;;;;5071390;28;20056;-42
2022/09/26 11:00:16;;;;;;;12.32;4.85;;;12.20;99.90;;;;;;5072722;28;20060;-46
2022/09/26 11:02:45;;;;;;;6.85;4.10;;;12.20;99.90;;;;;;5072647;28;20488;-47
2022/09/26 11:07:58;;;;;;;10.43;5.13;;;12.20;99.90;;;;;;5072542;28;20051;-50
2022/09/26 11:10:25;;;;;;;11.77;4.50;;;12.20;99.90;;;;;;5070659;28;20056;-51
2022/09/26 11:13:02;;;;;;;11.10;4.70;;;12.20;99.90;;;;;;5071371;28;20110;-53
2022/09/26 11:15:29;;;;;;;9.38;4.68;;;12.20;99.90;;;;;;5071511;28;20058;-54
2022/09/26 11:17:56;;;;;;;7.35;4.28;;;12.20;99.90;;;;;;5069262;28;20075;-52
2022/09/26 11:20:45;;;;;;;10.05;4.50;;;12.20;99.90;;;;;;5069568;28;20044;-46
2022/09/26 11:23:23;;;;;;;6.18;4.35;;;12.20;99.90;;;;;;5068279;28;20064;-52
2022/09/26 11:25:55;;;;;;;8.95;4.60;;;12.10;99.90;;;;;;5073505;28;20052;-52
2022/09/26 11:28:23;;;;;;;;;;;12.10;99.90;;;;;;5073028;28;20056;-50
2022/09/26 11:30:51;;;;;;;9.07;4.80;;;12.10;99.90;;;;;;5072058;28;20306;-50
2022/09/26 11:33:18;;;;;;;10.05;4.53;;;12.10;99.90;;;;;;5073744;28;20071;-50
2022/09/26 11:35:50;;;;;;;9.50;4.35;;;12.10;99.90;;;;;;5073849;28;20102;-52
2022/09/26 11:38:31;;;;;;;8.75;4.28;;;12.10;99.90;;;;;;5073605;28;20045;-53
2022/09/26 11:41:06;;;;;;;9.43;4.32;;;12.10;99.90;;;;;;5073199;28;20056;-53
2022/09/26 11:43:50;;;;;;;7.75;4.50;;;12.10;99.90;;;;;;5072455;28;20057;-47
2022/09/26 11:46:27;;;;;;;7.35;4.00;;;12.20;99.90;;;;;;5066151;28;20040;-52
2022/09/26 11:49:25;;;;;;;5.85;4.22;;;12.20;99.90;;;;;;5072561;28;20051;-42
2022/09/26 11:52:02;;;;;;;10.43;4.85;;;12.20;99.90;;;;;;5061533;28;20064;-45
2022/09/26 11:54:48;;;;;;;8.20;4.30;;;12.10;99.90;;;;;;5070483;28;20049;-48
2022/09/26 11:57:24;;;;;;;10.05;4.25;;;12.10;99.90;;;;;;5070676;28;20075;-48
2022/09/26 11:59:58;;;;;;;7.32;4.45;;;12.20;99.90;;;;;;5066472;28;20041;-45
2022/09/26 12:02:40;;;;;;;6.45;4.28;;;12.20;99.90;;;;;;5070736;28;20049;-48
2022/09/26 12:05:23;;;;;;;5.95;3.80;;;12.30;99.90;;;;;;5069959;28;20488;-47
2022/09/26 12:07:57;;;;;;;9.07;3.95;;;12.30;99.90;;;;;;5071896;28;20386;-46
2022/09/26 12:10:31;;;;;;;5.05;3.97;;;12.20;99.90;;;;;;5072009;28;20052;-50
2022/09/26 12:13:13;;;;;;;8.40;4.18;;;12.30;99.90;;;;;;5069272;28;20466;-44
2022/09/26 12:15:43;;;;;;;8.02;4.82;;;12.30;99.90;;;;;;5069290;28;20143;-48
2022/09/26 12:18:13;;;;;;;6.13;3.88;;;12.30;99.90;;;;;;5071192;28;20435;-47
2022/09/26 12:20:45;;;;;;;7.88;4.13;;;12.30;99.90;;;;;;5069258;28;20048;-46
2022/09/26 12:23:17;;;;;;;6.05;3.85;;;12.30;99.90;;;;;;5071440;28;20052;-48
2022/09/26 12:25:54;;;;;;;6.00;3.63;;;12.30;99.90;;;;;;5071591;28;20488;-47
2022/09/26 12:28:48;;;;;;;5.55;3.35;;;12.30;99.90;;;;;;5072854;28;20053;-45
2022/09/26 12:31:19;;;;;;;9.15;4.10;;;12.30;99.90;;;;;;5070926;28;20048;-48
2022/09/26 12:34:04;;;;;;;4.30;3.40;;;12.30;99.90;;;;;;5070237;28;20066;-49
2022/09/26 12:36:39;;;;;;;6.30;3.60;;;12.30;99.90;;;;;;5069601;28;20380;-47
2022/09/26 12:39:33;;;;;;;10.10;3.70;;;12.30;99.90;;;;;;5072040;28;20048;-49
2022/09/26 12:42:15;;;;;;;7.55;3.53;;;12.30;99.90;;;;;;5071002;28;20427;-46
2022/09/26 12:45:06;;;;;;;4.82;3.60;;;12.40;99.90;;;;;;5063497;28;20040;-48
2022/09/26 12:47:51;;;;;;;7.63;3.20;;;12.40;99.90;;;;;;5072670;28;20144;-47
2022/09/26 12:50:22;;;;;;;4.75;3.00;;;12.40;99.90;;;;;;5072411;28;20479;-49
2022/09/26 12:53:18;;;;;;;5.45;2.80;;;12.40;99.90;;;;;;5073043;28;20048;-44
2022/09/26 12:55:50;;;;;;;4.95;3.10;;;12.40;99.90;;;;;;5072683;28;20045;-46
2022/09/26 12:58:27;;;;;;;5.07;2.95;;;12.40;99.90;;;;;;5059113;28;20053;-49
2022/09/26 13:00:58;;;;;;;3.45;2.55;;;12.40;99.90;;;;;;5059180;28;20052;-49
2022/09/26 13:03:43;;;;;;;4.80;2.93;;;12.40;99.90;;;;;;5058081;28;20060;-51
2022/09/26 13:06:57;;;;;;;3.65;2.70;;;12.50;99.90;;;;;;5061776;28;20044;-50
2022/09/26 13:09:31;;;;;;;5.38;2.70;;;12.50;99.90;;;;;;5057057;28;20056;-50
2022/09/26 13:12:02;;;;;;;3.55;2.60;;;12.50;99.90;;;;;;5058822;28;20555;-50
2022/09/26 13:14:56;;;;;;;3.90;2.45;;;12.50;99.90;;;;;;5058333;28;20102;-50
2022/09/26 13:17:24;;;;;;;2.80;2.13;;;12.60;99.90;;;;;;5057869;28;20053;-52
2022/09/26 13:19:53;;;;;;;3.03;2.40;;;12.60;99.90;;;;;;5059199;28;20136;-47
2022/09/26 13:22:24;;;;;;;3.72;2.50;;;12.60;99.90;;;;;;5058078;28;20052;-47